Time;durP1;ratioP1;P1;durP2;ratioP2;P2;SDS_P1;SDS_P2;PMS_P1;PMS_P2;Temp;Humidity;BMP_temperature;BMP_pressure;BME280_temperature;BME280_humidity;BME280_pressure;Samples;Min_cycle;Max_cycle;Signal;HPM_P1;HPM_P2
2021/04/03 00:00:46;;;;;;;1.55;1.00;;;;;;;18.08;49.37;102807.84;5031036;28;20059;-75
2021/04/03 00:03:13;;;;;;;3.67;1.20;;;;;;;18.19;49.29;102835.22;5056000;28;20029;-74
2021/04/03 00:05:39;;;;;;;4.50;1.90;;;;;;;18.19;49.33;102827.38;5037683;28;20055;-74
2021/04/03 00:08:05;;;;;;;2.95;1.48;;;;;;;18.16;49.42;102819.44;5021356;28;20428;-74
2021/04/03 00:10:41;;;;;;;2.78;1.33;;;;;;;18.14;49.27;102818.53;5005033;28;20032;-73
2021/04/03 00:13:06;;;;;;;1.60;1.17;;;;;;;18.15;49.45;102821.19;5038348;28;20056;-74
2021/04/03 00:15:32;;;;;;;3.17;1.33;;;;;;;18.13;49.30;102824.59;5021915;28;20052;-75
2021/04/03 00:17:57;;;;;;;1.92;1.10;;;;;;;18.15;49.41;102821.19;5021371;28;20057;-75
2021/04/03 00:20:25;;;;;;;3.90;1.73;;;;;;;18.19;49.17;102827.38;5026508;28;20076;-74
2021/04/03 00:22:51;;;;;;;3.13;1.73;;;;;;;18.17;49.27;102821.22;5036140;28;20056;-75
2021/04/03 00:25:16;;;;;;;3.38;1.83;;;;;;;18.14;49.07;102819.41;5018119;28;20065;-75
2021/04/03 00:27:45;;;;;;;2.35;1.25;;;;;;;18.16;49.37;102817.72;5002255;28;20025;-74
2021/04/03 00:30:17;;;;;;;3.40;1.20;;;;;;;18.16;49.51;102825.56;5018241;28;20033;-74
2021/04/03 00:32:57;;;;;;;4.82;1.40;;;;;;;18.12;49.35;102812.34;5002504;28;20124;-74
2021/04/03 00:35:31;;;;;;;2.22;1.20;;;;;;;18.13;49.01;102812.41;5037664;28;20021;-74
2021/04/03 00:37:57;;;;;;;1.80;1.17;;;;;;;18.16;49.26;102804.63;5036929;28;20029;-74
2021/04/03 00:40:27;;;;;;;2.00;1.20;;;;;;;18.13;49.39;102809.78;5037308;28;20482;-73
2021/04/03 00:42:53;;;;;;;2.75;1.17;;;;;;;18.12;49.21;102808.00;5025042;28;20030;-73
2021/04/03 00:45:21;;;;;;;4.25;1.30;;;;;;;18.11;49.21;102805.34;5037709;28;20075;-74
2021/04/03 00:47:47;;;;;;;1.73;1.02;;;;;;;18.11;49.28;102805.34;5036211;28;20032;-73
2021/04/03 00:50:16;;;;;;;2.38;1.40;;;;;;;18.05;49.27;102789.44;5034142;28;20025;-73
2021/04/03 00:52:41;;;;;;;2.17;1.10;;;;;;;18.13;49.50;102804.53;5040700;28;20064;-75
2021/04/03 00:55:09;;;;;;;6.57;1.60;;;;;;;18.12;49.26;102799.25;5034826;28;20049;-74
2021/04/03 00:57:35;;;;;;;2.65;1.35;;;;;;;18.06;49.40;102793.84;5017227;28;20084;-73
2021/04/03 01:00:00;;;;;;;3.65;1.17;;;;;;;18.11;49.21;102806.22;5010101;28;20033;-74
2021/04/03 01:02:26;;;;;;;2.80;1.70;;;;;;;18.11;49.25;102803.59;5036947;28;20497;-73
2021/04/03 01:04:51;;;;;;;2.85;1.33;;;;;;;18.08;49.12;102806.13;5036610;28;20114;-73
2021/04/03 01:07:17;;;;;;;2.50;1.30;;;;;;;18.08;49.23;102800.91;5036479;28;20490;-72
2021/04/03 01:09:44;;;;;;;2.90;1.10;;;;;;;18.10;48.95;102799.22;5020479;28;20033;-74
2021/04/03 01:12:41;;;;;;;3.35;1.40;;;;;;;18.13;49.15;102815.00;5031940;28;20379;-73
2021/04/03 01:15:15;;;;;;;3.03;1.13;;;;;;;18.12;49.01;102814.97;5034411;28;20022;-73
2021/04/03 01:17:52;;;;;;;2.28;1.52;;;;;;;18.12;49.19;102813.25;5043015;28;20016;-73
2021/04/03 01:20:40;;;;;;;1.88;1.00;;;;;;;18.03;48.89;102810.38;5028891;28;20437;-74
2021/04/03 01:23:27;;;;;;;1.15;0.90;;;;;;;18.11;49.22;102814.06;5017260;28;20024;-73
2021/04/03 01:26:06;;;;;;;2.75;1.05;;;;;;;18.11;49.25;102814.06;5017077;28;20083;-73
2021/04/03 01:29:03;;;;;;;2.95;1.20;;;;;;;18.12;49.27;102809.72;5033066;28;20024;-73
2021/04/03 01:31:29;;;;;;;2.45;1.00;;;;;;;18.12;49.41;102820.19;5050605;28;20414;-75
2021/04/03 01:33:58;;;;;;;4.40;2.33;;;;;;;18.07;49.15;102809.59;5033678;28;20021;-75
2021/04/03 01:36:26;;;;;;;4.32;1.27;;;;;;;18.10;49.05;102807.06;5039796;28;20017;-75
2021/04/03 01:39:13;;;;;;;2.08;1.05;;;;;;;18.07;49.52;102803.47;5055203;28;20032;-74
2021/04/03 01:41:42;;;;;;;1.55;0.98;;;;;;;18.02;48.98;102792.00;5054323;28;20021;-74
2021/04/03 01:44:11;;;;;;;2.63;1.20;;;;;;;18.06;48.98;102807.81;5054013;28;20021;-74
2021/04/03 01:46:38;;;;;;;3.70;1.77;;;;;;;18.06;48.92;102805.19;5036138;28;20033;-73
2021/04/03 01:49:09;;;;;;;3.55;1.80;;;;;;;17.99;49.18;102787.56;5036613;28;20483;-73
2021/04/03 01:51:36;;;;;;;2.35;1.25;;;;;;;18.04;49.24;102804.28;5020441;28;20040;-73
2021/04/03 01:54:02;;;;;;;3.03;0.98;;;;;;;18.05;48.75;102800.81;5020594;28;20025;-74
2021/04/03 01:56:29;;;;;;;3.97;2.08;;;;;;;18.06;48.98;102802.56;5053169;28;20121;-74
2021/04/03 01:58:56;;;;;;;4.05;1.25;;;;;;;18.05;49.18;102797.28;5036377;28;20032;-73
2021/04/03 02:01:21;;;;;;;2.35;1.10;;;;;;;18.04;49.17;102803.41;5037169;28;20036;-74
2021/04/03 02:03:47;;;;;;;2.88;1.25;;;;;;;18.04;49.28;102806.91;5004231;28;20029;-74
2021/04/03 02:06:14;;;;;;;2.72;1.27;;;;;;;17.96;49.07;102797.94;5053170;28;20597;-74
2021/04/03 02:08:41;;;;;;;2.20;1.02;;;;;;;17.99;48.91;102803.25;5053817;28;20033;-75
2021/04/03 02:11:07;;;;;;;3.40;1.77;;;;;;;18.00;49.17;102807.66;5056119;28;20025;-74
2021/04/03 02:13:34;;;;;;;3.10;1.35;;;;;;;18.07;48.92;102811.31;5024024;28;20086;-73
2021/04/03 02:16:01;;;;;;;2.13;1.15;;;;;;;18.07;48.99;102811.31;5041247;28;20036;-74
2021/04/03 02:18:30;;;;;;;2.03;1.10;;;;;;;18.06;49.19;102805.19;5039267;28;20025;-73
2021/04/03 02:21:02;;;;;;;2.30;1.17;;;;;;;18.01;49.07;102804.19;5058421;28;20475;-73
2021/04/03 02:23:28;;;;;;;1.83;1.00;;;;;;;17.96;49.12;102797.94;5059046;28;20037;-73
2021/04/03 02:25:55;;;;;;;1.83;1.05;;;;;;;18.06;48.93;102812.16;5022628;28;20031;-73
2021/04/03 02:28:21;;;;;;;2.50;1.38;;;;;;;17.98;49.09;102788.41;5021668;28;20071;-73
2021/04/03 02:30:46;;;;;;;2.40;1.35;;;;;;;18.00;49.07;102802.44;5058623;28;20036;-74
2021/04/03 02:33:13;;;;;;;3.08;1.13;;;;;;;18.00;49.03;102799.81;5008299;28;20029;-73
2021/04/03 02:35:38;;;;;;;2.22;1.38;;;;;;;18.04;48.90;102812.16;5025331;28;20021;-74
2021/04/03 02:38:04;;;;;;;3.25;1.42;;;;;;;18.03;48.87;102807.75;5058942;28;20120;-75
2021/04/03 02:40:31;;;;;;;1.88;1.13;;;;;;;17.96;49.18;102789.19;5056902;28;20025;-74
2021/04/03 02:43:00;;;;;;;3.03;1.20;;;;;;;18.05;48.90;102813.88;5023238;28;20394;-76
2021/04/03 02:45:26;;;;;;;3.50;1.25;;;;;;;18.01;49.01;102803.31;5040080;28;20498;-74
2021/04/03 02:47:57;;;;;;;2.97;1.10;;;;;;;18.05;49.03;102813.00;5039664;28;20052;-73
2021/04/03 02:50:26;;;;;;;2.85;1.17;;;;;;;18.04;48.99;102806.03;5040321;28;20057;-73
2021/04/03 02:52:54;;;;;;;2.08;1.00;;;;;;;18.01;49.01;102801.59;5040475;28;20036;-73
2021/04/03 02:55:23;;;;;;;3.20;1.35;;;;;;;18.03;48.99;102813.00;5057689;28;20433;-73
2021/04/03 02:57:50;;;;;;;2.08;1.23;;;;;;;18.01;49.14;102808.56;5055378;28;20025;-73
2021/04/03 03:00:18;;;;;;;1.83;1.10;;;;;;;17.92;49.07;102796.06;5005990;28;20369;-74
2021/04/03 03:02:44;;;;;;;2.63;1.30;;;;;;;17.97;48.90;102809.28;5019966;28;20438;-74
2021/04/03 03:05:12;;;;;;;3.50;1.77;;;;;;;17.95;48.90;102801.41;5003612;28;20030;-73
2021/04/03 03:07:42;;;;;;;1.85;1.08;;;;;;;17.93;49.18;102796.94;5003746;28;20064;-73
2021/04/03 03:10:08;;;;;;;3.67;1.30;;;;;;;17.99;48.88;102807.63;5021562;28;20053;-74
2021/04/03 03:12:37;;;;;;;4.07;2.20;;;;;;;17.97;48.90;102801.44;5000046;28;20058;-73
2021/04/03 03:15:03;;;;;;;2.92;1.20;;;;;;;17.93;49.27;102797.84;5017123;28;20026;-74
2021/04/03 03:17:29;;;;;;;1.73;1.08;;;;;;;17.97;48.76;102801.44;5035373;28;20475;-74
2021/04/03 03:19:55;;;;;;;2.45;1.40;;;;;;;17.91;48.76;102796.94;5002997;28;20033;-73
2021/04/03 03:22:21;;;;;;;3.13;1.17;;;;;;;17.95;49.11;102804.00;5018631;28;20025;-74
2021/04/03 03:24:47;;;;;;;4.38;1.38;;;;;;;17.99;48.95;102807.63;5002921;28;20068;-73
2021/04/03 03:27:13;;;;;;;3.55;1.33;;;;;;;17.99;49.00;102813.75;5019105;28;20064;-74
2021/04/03 03:29:39;;;;;;;2.30;1.30;;;;;;;17.96;48.91;102811.03;5015635;28;20065;-73
2021/04/03 03:32:05;;;;;;;4.22;1.60;;;;;;;17.95;48.98;102806.63;4999965;28;20026;-73
2021/04/03 03:34:31;;;;;;;1.83;1.20;;;;;;;17.90;49.08;102792.53;5035262;28;20091;-72
2021/04/03 03:36:57;;;;;;;3.30;1.40;;;;;;;17.98;49.29;102798.88;5009160;28;20033;-73
2021/04/03 03:39:24;;;;;;;4.10;1.20;;;;;;;17.95;49.53;102796.16;5019546;28;20026;-73
2021/04/03 03:41:55;;;;;;;2.00;1.05;;;;;;;17.99;49.02;102813.75;5002925;28;20036;-73
2021/04/03 03:44:21;;;;;;;2.63;1.27;;;;;;;17.96;49.14;102797.94;5041508;28;20493;-73
2021/04/03 03:46:47;;;;;;;3.80;1.70;;;;;;;17.94;48.92;102796.13;5033408;28;20030;-73
2021/04/03 03:49:12;;;;;;;3.35;1.52;;;;;;;17.94;49.18;102811.81;4968139;28;20030;-74
2021/04/03 03:51:37;;;;;;;3.67;1.00;;;;;;;17.95;48.90;102813.59;5022805;28;20047;-73
2021/04/03 03:54:03;;;;;;;4.65;1.33;;;;;;;17.91;48.81;102803.91;5022293;28;20539;-73
2021/04/03 03:56:28;;;;;;;3.75;1.42;;;;;;;17.96;49.05;102818.00;5005280;28;20451;-73
2021/04/03 03:58:54;;;;;;;2.30;1.30;;;;;;;17.98;49.03;102827.66;4991508;28;20184;-73
2021/04/03 04:01:19;;;;;;;5.15;1.67;;;;;;;17.87;48.85;102804.66;4998690;28;20062;-73
2021/04/03 04:03:45;;;;;;;3.05;1.50;;;;;;;17.91;49.07;102814.38;4968682;28;20029;-72
2021/04/03 04:06:10;;;;;;;2.95;1.00;;;;;;;17.87;48.90;102808.16;4998061;28;20037;-73
2021/04/03 04:08:36;;;;;;;4.38;1.35;;;;;;;17.96;48.86;102812.75;5002608;28;20108;-74
2021/04/03 04:11:01;;;;;;;2.28;1.42;;;;;;;17.95;49.06;102816.22;5018462;28;20042;-73
2021/04/03 04:13:27;;;;;;;3.88;1.75;;;;;;;17.89;48.84;102802.97;5002130;28;20099;-73
2021/04/03 04:15:52;;;;;;;2.58;1.45;;;;;;;17.94;49.04;102812.72;5018185;28;20441;-73
2021/04/03 04:18:18;;;;;;;2.58;1.33;;;;;;;17.95;48.90;102821.44;4991476;28;20394;-73
2021/04/03 04:20:43;;;;;;;2.67;1.05;;;;;;;17.91;49.09;102825.72;5038275;28;20499;-74
2021/04/03 04:23:09;;;;;;;3.97;1.10;;;;;;;17.94;49.06;102828.41;5039260;28;20033;-73
2021/04/03 04:25:34;;;;;;;6.35;1.58;;;;;;;17.85;49.10;102821.19;5002704;28;20025;-73
2021/04/03 04:27:59;;;;;;;3.35;1.63;;;;;;;17.91;48.96;102836.19;5018439;28;20072;-73
2021/04/03 04:30:27;;;;;;;3.28;1.60;;;;;;;17.93;49.01;102841.44;5002931;28;20037;-73
2021/04/03 04:32:52;;;;;;;2.03;1.33;;;;;;;17.93;48.97;102852.81;5016652;28;20029;-74
2021/04/03 04:35:18;;;;;;;3.22;1.95;;;;;;;17.89;49.07;102848.34;4997387;28;20036;-73
2021/04/03 04:37:43;;;;;;;2.58;1.00;;;;;;;17.90;48.90;102844.00;5018589;28;20033;-72
2021/04/03 04:40:12;;;;;;;1.17;0.85;;;;;;;17.85;49.20;102842.13;5014516;28;20109;-73
2021/04/03 04:42:41;;;;;;;3.10;1.77;;;;;;;17.93;49.02;102855.44;4998283;28;20022;-73
2021/04/03 04:45:09;;;;;;;1.85;1.13;;;;;;;17.93;49.07;102868.50;4999359;28;20030;-74
2021/04/03 04:47:35;;;;;;;3.95;1.42;;;;;;;17.89;48.88;102869.28;5008780;28;20049;-73
2021/04/03 04:50:00;;;;;;;2.20;1.08;;;;;;;17.85;48.97;102865.69;5015072;28;20026;-73
2021/04/03 04:52:27;;;;;;;2.97;1.55;;;;;;;17.84;49.14;102863.91;5012026;28;20045;-73
2021/04/03 04:54:52;;;;;;;1.98;1.15;;;;;;;17.81;48.87;102855.06;5014142;28;20033;-73
2021/04/03 04:57:17;;;;;;;1.95;1.00;;;;;;;17.78;48.92;102852.38;5005118;28;20045;-73
2021/04/03 04:59:43;;;;;;;3.53;1.27;;;;;;;17.88;48.98;102870.13;5034870;28;20036;-73
2021/04/03 05:02:08;;;;;;;3.53;1.60;;;;;;;17.87;49.06;102884.06;5001129;28;20033;-74
2021/04/03 05:04:33;;;;;;;3.30;1.63;;;;;;;17.81;49.52;102868.16;5001315;28;20033;-73
2021/04/03 05:06:59;;;;;;;2.78;1.33;;;;;;;17.76;49.05;102861.91;4989862;28;20033;-73
2021/04/03 05:09:24;;;;;;;2.47;1.20;;;;;;;17.88;49.23;102891.06;4965100;28;20022;-73
2021/04/03 05:11:49;;;;;;;1.55;1.20;;;;;;;17.88;49.23;102883.22;4997962;28;20033;-73
2021/04/03 05:14:15;;;;;;;2.42;1.17;;;;;;;17.83;48.93;102880.44;4997812;28;20392;-74
2021/04/03 05:16:40;;;;;;;2.65;1.40;;;;;;;17.86;48.91;102884.91;4997514;28;20025;-73
2021/04/03 05:19:05;;;;;;;4.45;1.92;;;;;;;17.82;49.08;102872.56;5013821;28;20387;-73
2021/04/03 05:21:31;;;;;;;3.45;1.50;;;;;;;17.81;49.10;102883.84;5008648;28;20036;-73
2021/04/03 05:23:56;;;;;;;2.58;1.45;;;;;;;17.80;49.19;102876.84;4984417;28;20057;-74
2021/04/03 05:26:22;;;;;;;2.60;1.48;;;;;;;17.83;48.93;102882.19;5000770;28;20116;-74
2021/04/03 05:28:47;;;;;;;1.58;0.98;;;;;;;17.83;48.95;102887.41;5006678;28;20434;-73
2021/04/03 05:31:13;;;;;;;3.03;1.33;;;;;;;17.65;49.04;102858.09;4997280;28;20127;-74
2021/04/03 05:33:38;;;;;;;2.40;1.40;;;;;;;17.80;49.20;102884.69;5029522;28;20415;-73
2021/04/03 05:36:04;;;;;;;2.50;1.20;;;;;;;17.86;49.07;102897.97;5017058;28;20384;-73
2021/04/03 05:38:29;;;;;;;3.88;1.48;;;;;;;17.83;48.79;102900.50;5002577;28;20039;-73
2021/04/03 05:40:55;;;;;;;3.25;1.45;;;;;;;17.85;49.02;102906.66;5014960;28;20041;-73
2021/04/03 05:43:20;;;;;;;2.47;1.55;;;;;;;17.86;49.17;102903.22;5000978;28;20033;-74
2021/04/03 05:45:53;;;;;;;4.95;1.35;;;;;;;17.82;48.79;102903.94;5000356;28;20029;-73
2021/04/03 05:48:22;;;;;;;4.20;1.55;;;;;;;17.83;49.11;102910.97;5035206;28;20029;-74
2021/04/03 05:50:48;;;;;;;2.75;1.33;;;;;;;17.78;48.97;102909.97;5013653;28;20034;-75
2021/04/03 05:53:14;;;;;;;2.45;1.20;;;;;;;17.76;49.08;102912.53;5009990;28;20060;-74
2021/04/03 05:55:40;;;;;;;3.60;1.60;;;;;;;17.70;49.06;102895.72;5011672;28;20050;-73
2021/04/03 05:58:06;;;;;;;2.47;1.30;;;;;;;17.83;49.35;102910.97;5016099;28;20133;-73
2021/04/03 06:00:31;;;;;;;3.95;1.50;;;;;;;17.80;49.19;102917.00;5015180;28;20581;-75
2021/04/03 06:02:57;;;;;;;3.72;1.55;;;;;;;17.85;48.91;102923.25;5022234;28;20041;-74
2021/04/03 06:05:22;;;;;;;2.63;1.38;;;;;;;17.85;48.97;102935.47;5015049;28;20388;-74
2021/04/03 06:07:47;;;;;;;4.70;1.58;;;;;;;17.85;49.07;102925.00;4977703;28;20022;-73
2021/04/03 06:10:13;;;;;;;4.07;1.60;;;;;;;17.81;49.05;102916.16;5001453;28;20192;-74
2021/04/03 06:12:49;;;;;;;3.05;1.60;;;;;;;17.85;48.89;102925.00;4978950;28;20025;-74
2021/04/03 06:15:35;;;;;;;2.75;1.20;;;;;;;17.85;48.95;102938.09;5032937;28;20110;-74
2021/04/03 06:18:07;;;;;;;2.55;1.10;;;;;;;17.85;48.89;102943.31;5029659;28;20167;-73
2021/04/03 06:20:34;;;;;;;2.13;1.10;;;;;;;17.80;48.97;102934.41;5039459;28;20025;-74
2021/04/03 06:23:01;;;;;;;1.80;1.10;;;;;;;17.89;48.87;102958.28;5012263;28;20032;-73
2021/04/03 06:25:27;;;;;;;2.95;1.25;;;;;;;18.00;48.80;102956.88;5035745;28;20038;-74
2021/04/03 06:28:09;;;;;;;2.67;1.45;;;;;;;18.16;48.48;102955.63;5001854;28;20021;-74
2021/04/03 06:30:37;;;;;;;2.95;1.17;;;;;;;18.02;48.54;102935.97;5004141;28;20040;-73
2021/04/03 06:33:17;;;;;;;3.55;1.80;;;;;;;18.03;48.69;102961.31;5018807;28;20025;-73
2021/04/03 06:35:44;;;;;;;2.95;1.63;;;;;;;17.96;48.89;102952.38;5016134;28;20502;-74
2021/04/03 06:38:20;;;;;;;2.97;1.58;;;;;;;18.00;48.67;102963.84;5033803;28;20352;-73
2021/04/03 06:40:45;;;;;;;2.67;1.40;;;;;;;17.97;48.66;102958.50;5018104;28;20108;-76
2021/04/03 06:43:17;;;;;;;3.95;1.65;;;;;;;18.01;48.74;102961.28;4998398;28;20033;-74
2021/04/03 06:45:47;;;;;;;1.70;1.05;;;;;;;17.99;48.57;102962.94;5009327;28;20075;-74
2021/04/03 06:48:14;;;;;;;3.95;1.55;;;;;;;18.00;48.68;102964.72;5015044;28;20117;-73
2021/04/03 06:50:45;;;;;;;2.67;1.50;;;;;;;18.07;48.70;102978.88;5016106;28;20021;-73
2021/04/03 06:53:16;;;;;;;2.55;1.52;;;;;;;18.08;48.53;102975.44;5015969;28;20048;-75
2021/04/03 06:55:51;;;;;;;3.22;1.75;;;;;;;18.05;48.70;102965.75;5032465;28;20056;-73
2021/04/03 06:58:16;;;;;;;2.60;1.40;;;;;;;18.11;48.67;102978.16;5019990;28;20527;-74
2021/04/03 07:00:42;;;;;;;2.83;1.40;;;;;;;18.13;48.71;102985.22;5019314;28;20132;-74
2021/04/03 07:03:20;;;;;;;3.58;1.65;;;;;;;18.15;48.55;102982.66;5030085;28;20030;-74
2021/04/03 07:05:46;;;;;;;2.70;1.30;;;;;;;18.11;48.41;102984.28;5032902;28;20036;-73
2021/04/03 07:08:12;;;;;;;4.85;1.17;;;;;;;18.11;48.32;102992.13;5019164;28;20364;-73
2021/04/03 07:10:39;;;;;;;4.10;1.20;;;;;;;18.18;48.48;102987.94;5037182;28;20035;-73
2021/04/03 07:13:07;;;;;;;1.80;1.27;;;;;;;18.10;48.42;102976.38;5018993;28;20372;-72
2021/04/03 07:15:32;;;;;;;3.00;1.45;;;;;;;18.21;48.46;102994.19;5003114;28;20032;-73
2021/04/03 07:17:58;;;;;;;4.03;1.52;;;;;;;18.24;48.40;102995.13;5018055;28;20021;-73
2021/04/03 07:20:27;;;;;;;3.35;1.60;;;;;;;18.15;48.44;102980.91;5019441;28;20033;-73
2021/04/03 07:23:07;;;;;;;3.63;1.40;;;;;;;18.27;48.10;103005.69;5034984;28;20032;-72
2021/04/03 07:25:39;;;;;;;4.38;2.10;;;;;;;18.28;48.15;103003.13;5018480;28;20461;-74
2021/04/03 07:28:08;;;;;;;2.28;1.50;;;;;;;18.27;48.30;103001.34;5018219;28;20013;-73
2021/04/03 07:30:39;;;;;;;1.80;1.00;;;;;;;18.29;48.59;103002.28;5018656;28;20024;-72
2021/04/03 07:33:12;;;;;;;3.03;1.20;;;;;;;18.33;48.30;103005.84;5036700;28;20387;-73
2021/04/03 07:36:02;;;;;;;3.10;1.23;;;;;;;18.33;48.25;103006.75;5035163;28;20492;-73
2021/04/03 07:38:29;;;;;;;3.88;1.52;;;;;;;18.33;48.27;103006.75;5025549;28;20292;-73
2021/04/03 07:40:57;;;;;;;5.53;1.85;;;;;;;18.34;48.33;103011.16;5018182;28;20021;-74
2021/04/03 07:43:44;;;;;;;2.90;1.13;;;;;;;18.36;48.27;103016.44;5036365;28;20076;-74
2021/04/03 07:46:37;;;;;;;3.47;1.80;;;;;;;18.36;48.25;103014.72;5018574;28;20047;-74
2021/04/03 07:49:02;;;;;;;2.85;1.38;;;;;;;18.38;48.27;103014.75;5011477;28;20037;-74
2021/04/03 07:51:28;;;;;;;2.95;1.73;;;;;;;18.39;48.12;103019.16;4983159;28;22411;-74
2021/04/03 07:53:58;;;;;;;1.88;1.08;;;;;;;18.31;48.41;103007.53;5008933;28;20559;-73
2021/04/03 07:56:25;;;;;;;3.45;1.30;;;;;;;18.33;48.13;103006.75;5029384;28;20057;-74
2021/04/03 07:58:52;;;;;;;4.70;1.48;;;;;;;18.42;48.21;103012.28;5008355;28;20120;-73
2021/04/03 08:01:19;;;;;;;2.25;1.35;;;;;;;18.40;48.17;103021.81;5018968;28;20480;-73
2021/04/03 08:04:01;;;;;;;2.67;1.38;;;;;;;18.34;48.43;103032.09;4981856;28;20083;-74
2021/04/03 08:06:32;;;;;;;2.35;0.90;;;;;;;18.32;48.24;103032.88;4998548;28;20473;-73
2021/04/03 08:08:58;;;;;;;3.92;1.40;;;;;;;18.33;48.46;103034.66;4981844;28;20033;-73
2021/04/03 08:11:24;;;;;;;2.30;1.08;;;;;;;18.34;48.32;103039.97;4989418;28;20476;-74
2021/04/03 08:13:53;;;;;;;1.65;1.20;;;;;;;18.25;48.29;103028.31;4985270;28;20036;-73
2021/04/03 08:16:20;;;;;;;2.33;1.13;;;;;;;18.30;48.50;103045.06;5017703;28;20037;-74
2021/04/03 08:18:48;;;;;;;3.20;1.25;;;;;;;18.30;48.47;103045.97;5017499;28;20480;-74
2021/04/03 08:21:14;;;;;;;2.03;1.30;;;;;;;18.32;48.27;103046.00;5035436;28;20065;-73
2021/04/03 08:23:51;;;;;;;4.15;1.55;;;;;;;18.32;48.22;103044.25;5016970;28;20567;-74
2021/04/03 08:26:19;;;;;;;2.20;1.70;;;;;;;18.24;48.41;103037.91;5017865;28;20163;-74
2021/04/03 08:28:45;;;;;;;3.60;1.63;;;;;;;18.18;48.43;103037.69;5017337;28;20025;-74
2021/04/03 08:31:28;;;;;;;3.15;1.20;;;;;;;18.29;48.84;103059.91;5021684;28;20382;-74
2021/04/03 08:33:56;;;;;;;3.75;1.77;;;;;;;18.24;48.42;103051.00;5026563;28;20026;-75
2021/04/03 08:36:24;;;;;;;2.42;0.93;;;;;;;18.17;48.45;103023.75;5034333;28;20091;-74
2021/04/03 08:38:50;;;;;;;2.25;1.25;;;;;;;18.27;48.53;103034.50;5017666;28;20022;-74
2021/04/03 08:41:27;;;;;;;3.83;2.05;;;;;;;18.31;48.34;103042.47;5001330;28;20064;-73
2021/04/03 08:43:54;;;;;;;3.58;1.30;;;;;;;18.27;48.61;103040.63;5017139;28;20025;-74
2021/04/03 08:46:21;;;;;;;3.10;1.63;;;;;;;18.34;48.46;103047.81;5017448;28;20021;-74
2021/04/03 08:48:54;;;;;;;4.82;1.50;;;;;;;18.37;48.36;103041.78;5017172;28;20022;-73
2021/04/03 08:51:20;;;;;;;2.33;1.40;;;;;;;18.29;48.53;103043.31;5016427;28;20017;-73
2021/04/03 08:53:48;;;;;;;2.65;1.60;;;;;;;18.29;48.48;103045.91;5016926;28;20120;-74
2021/04/03 08:56:25;;;;;;;4.40;1.58;;;;;;;18.30;48.43;103047.69;5016814;28;20128;-73
2021/04/03 08:58:52;;;;;;;4.00;1.33;;;;;;;18.33;48.40;103051.28;5033197;28;20032;-73
2021/04/03 09:01:19;;;;;;;3.33;1.40;;;;;;;18.18;48.77;103028.13;5017052;28;20108;-73
2021/04/03 09:03:47;;;;;;;2.65;1.10;;;;;;;18.19;48.72;103042.09;4987919;28;20030;-73
2021/04/03 09:06:13;;;;;;;3.92;1.60;;;;;;;18.26;48.66;103046.72;5014640;28;20036;-73
2021/04/03 09:08:38;;;;;;;3.08;1.35;;;;;;;18.27;48.51;103042.34;4997768;28;20033;-74
2021/04/03 09:11:04;;;;;;;2.78;1.45;;;;;;;18.22;48.57;103036.97;5011413;28;20553;-74
2021/04/03 09:13:37;;;;;;;2.20;1.42;;;;;;;18.32;48.35;103048.59;5013506;28;20121;-74
2021/04/03 09:16:10;;;;;;;3.45;1.38;;;;;;;18.27;48.46;103039.75;5014536;28;20061;-74
2021/04/03 09:18:36;;;;;;;;;;;;;;;18.36;48.49;103045.25;4981105;28;20033;-73
2021/04/03 09:21:02;;;;;;;2.40;1.20;;;;;;;18.34;48.20;103049.53;5001580;28;19916;-74
2021/04/03 09:23:27;;;;;;;2.22;1.33;;;;;;;18.37;48.50;103057.50;5016457;28;20491;-73
2021/04/03 09:26:03;;;;;;;3.20;1.45;;;;;;;18.35;48.62;103048.72;5000066;28;20030;-73
2021/04/03 09:28:47;;;;;;;2.45;1.20;;;;;;;18.37;48.40;103062.75;5016546;28;20108;-74
2021/04/03 09:31:12;;;;;;;2.15;1.33;;;;;;;18.34;48.48;103052.16;5000264;28;20033;-73
2021/04/03 09:33:48;;;;;;;3.13;1.48;;;;;;;18.36;48.42;103053.09;4996489;28;20080;-73
2021/04/03 09:36:18;;;;;;;1.85;1.00;;;;;;;18.32;48.27;103059.09;4996872;28;20030;-74
2021/04/03 09:38:45;;;;;;;2.65;1.23;;;;;;;18.35;48.22;103067.03;4992082;28;20033;-74
2021/04/03 09:41:33;;;;;;;4.47;1.50;;;;;;;18.35;48.36;103069.66;5034171;28;20026;-74
2021/04/03 09:43:59;;;;;;;2.95;1.45;;;;;;;18.37;48.32;103061.03;5033222;28;20036;-74
2021/04/03 09:46:24;;;;;;;2.35;1.38;;;;;;;18.36;48.38;103072.34;5034508;28;20033;-73
2021/04/03 09:48:50;;;;;;;2.47;1.25;;;;;;;18.31;48.31;103060.81;5002997;28;20022;-74
2021/04/03 09:51:15;;;;;;;2.15;1.27;;;;;;;18.28;48.30;103059.84;5013091;28;20029;-73
2021/04/03 09:53:41;;;;;;;2.30;1.27;;;;;;;18.34;48.48;103062.66;4996292;28;20077;-72
2021/04/03 09:56:06;;;;;;;2.50;1.23;;;;;;;18.36;48.48;103076.69;5014234;28;20103;-72
2021/04/03 09:58:32;;;;;;;2.30;1.55;;;;;;;18.25;48.25;103058.03;5035990;28;20029;-73
2021/04/03 10:00:58;;;;;;;1.98;1.40;;;;;;;18.33;48.21;103072.22;5069832;28;20106;-73
2021/04/03 10:03:24;;;;;;;2.67;1.33;;;;;;;18.34;48.35;103068.78;5036366;28;20075;-73
2021/04/03 10:05:49;;;;;;;2.03;1.35;;;;;;;18.29;48.58;103061.63;5016264;28;20036;-73
2021/04/03 10:08:14;;;;;;;3.42;1.25;;;;;;;18.33;48.40;103063.47;5046696;28;20086;-74
2021/04/03 10:10:40;;;;;;;3.75;1.48;;;;;;;18.36;48.55;103071.44;5052991;28;20020;-73
2021/04/03 10:13:07;;;;;;;3.97;1.40;;;;;;;18.37;48.47;103081.97;5053389;28;20478;-73
2021/04/03 10:15:33;;;;;;;2.38;1.08;;;;;;;18.34;48.12;103068.78;5037208;28;20021;-74
2021/04/03 10:17:59;;;;;;;2.70;1.20;;;;;;;18.33;48.42;103061.75;5051776;28;20040;-73
2021/04/03 10:20:24;;;;;;;2.13;1.23;;;;;;;18.25;48.36;103067.59;5043494;28;20383;-73
2021/04/03 10:22:49;;;;;;;2.40;1.38;;;;;;;18.25;48.71;103060.63;5036598;28;20033;-74
2021/04/03 10:25:15;;;;;;;2.75;1.33;;;;;;;18.25;48.74;103072.84;5038880;28;20041;-74
2021/04/03 10:27:41;;;;;;;1.70;1.20;;;;;;;18.27;48.84;103074.69;5018019;28;20036;-74
2021/04/03 10:30:08;;;;;;;2.15;1.52;;;;;;;18.19;48.62;103063.94;5017049;28;20029;-73
2021/04/03 10:32:33;;;;;;;2.83;1.35;;;;;;;18.18;48.51;103059.53;5032274;28;20095;-72
2021/04/03 10:34:59;;;;;;;2.53;1.58;;;;;;;18.26;48.52;103058.91;5024147;28;20025;-72
2021/04/03 10:37:25;;;;;;;6.05;1.50;;;;;;;18.28;48.56;103070.34;5024297;28;20041;-73
2021/04/03 10:39:50;;;;;;;3.47;1.67;;;;;;;18.25;48.46;103068.50;5051493;28;20026;-73
2021/04/03 10:42:15;;;;;;;3.15;1.13;;;;;;;18.18;48.65;103048.19;5029922;28;20056;-72
2021/04/03 10:44:41;;;;;;;2.35;1.80;;;;;;;18.22;48.60;103052.69;5039824;28;20032;-73
2021/04/03 10:47:06;;;;;;;3.75;1.25;;;;;;;18.19;48.62;103057.81;5023600;28;20045;-73
2021/04/03 10:49:32;;;;;;;2.20;1.35;;;;;;;18.27;48.56;103079.03;5048621;28;20041;-73
2021/04/03 10:51:58;;;;;;;4.28;1.10;;;;;;;18.21;48.74;103064.88;5024612;28;20029;-73
2021/04/03 10:54:23;;;;;;;2.50;1.42;;;;;;;18.21;48.77;103066.63;5023117;28;20044;-73
2021/04/03 10:56:49;;;;;;;3.58;1.23;;;;;;;18.19;48.75;103074.41;5040803;28;20076;-72
2021/04/03 10:59:14;;;;;;;3.03;1.60;;;;;;;18.16;48.81;103058.63;5041772;28;20098;-75
2021/04/03 11:01:40;;;;;;;5.40;1.67;;;;;;;18.25;48.72;103078.97;5024824;28;20025;-75
2021/04/03 11:04:06;;;;;;;3.78;1.90;;;;;;;18.23;48.70;103071.91;5040465;28;20418;-74
2021/04/03 11:06:31;;;;;;;2.95;1.55;;;;;;;18.26;48.99;103067.66;5026166;28;20028;-75
2021/04/03 11:08:56;;;;;;;3.78;2.10;;;;;;;18.29;48.75;103066.88;5059859;28;20378;-73
2021/04/03 11:11:22;;;;;;;2.20;1.08;;;;;;;18.24;48.75;103071.97;5023675;28;20032;-76
2021/04/03 11:13:47;;;;;;;2.75;1.25;;;;;;;18.25;48.99;103070.22;5007898;28;20033;-74
2021/04/03 11:16:13;;;;;;;5.15;1.90;;;;;;;18.26;48.94;103069.38;5024585;28;20017;-74
2021/04/03 11:18:38;;;;;;;4.63;1.60;;;;;;;18.24;49.18;103066.72;5025031;28;20033;-74
2021/04/03 11:21:03;;;;;;;2.58;1.88;;;;;;;18.24;48.91;103066.72;5024449;28;20032;-74
2021/04/03 11:23:29;;;;;;;4.43;1.73;;;;;;;18.22;48.96;103065.78;5023723;28;20459;-73
2021/04/03 11:25:54;;;;;;;2.10;1.63;;;;;;;18.20;49.02;103063.09;5040235;28;20415;-74
2021/04/03 11:28:20;;;;;;;2.70;1.08;;;;;;;18.25;48.87;103075.47;5057700;28;20024;-73